RYR61LJ LEPA-LEZL
Flight info
| Callsign | RYR61LJ |
|---|---|
| Flight time | 1h 10m |
| Altitude | 35000 |
| Route | BAVER DCT GERVU DCT ALT DCT RESTU DCT TOSGA DCT ROLAS DCT UNTOS DCT RIXUR DCT MGA M744 MAR |
| Aircraft | A320/M-SDE3FGHIRWY/LB1 |
Departure
| Time | 2026-04-25 16:53 |
|---|---|
| Airport | Palma de Mallorca Airport (LEPA) |
Arrival
| Time | 2026-04-25 18:04 |
|---|---|
| Airport | Seville Airport (LEZL) |
| Time | Latitude | Longitude | Altitude | Speed | Heading |
|---|---|---|---|---|---|
| 2026-04-25 16:01 | 39.55026 | 2.73492 | 30 ft | 0 kts | 163° |
| 2026-04-25 16:36 | 39.55029 | 2.73491 | 30 ft | 3 kts | 163° |
| 2026-04-25 16:37 | 39.55055 | 2.73481 | 30 ft | 4 kts | 163° |
| 2026-04-25 16:37 | 39.55078 | 2.73473 | 30 ft | 2 kts | 163° |
| 2026-04-25 16:37 | 39.55099 | 2.73459 | 30 ft | 4 kts | 123° |
| 2026-04-25 16:37 | 39.55103 | 2.73432 | 30 ft | 4 kts | 62° |
| 2026-04-25 16:38 | 39.55092 | 2.73407 | 30 ft | 1 kts | 59° |
| 2026-04-25 16:46 | 39.55108 | 2.73442 | 30 ft | 7 kts | 58° |
| 2026-04-25 16:46 | 39.55116 | 2.73459 | 30 ft | 7 kts | 58° |
| 2026-04-25 16:47 | 39.55155 | 2.73538 | 30 ft | 6 kts | 58° |
| 2026-04-25 16:47 | 39.55181 | 2.73604 | 30 ft | 10 kts | 77° |
| 2026-04-25 16:47 | 39.55175 | 2.73680 | 30 ft | 8 kts | 71° |
| 2026-04-25 16:47 | 39.55171 | 2.73772 | 30 ft | 14 kts | 90° |
| 2026-04-25 16:48 | 39.55237 | 2.73804 | 30 ft | 12 kts | 333° |
| 2026-04-25 16:48 | 39.55336 | 2.73726 | 30 ft | 20 kts | 329° |
| 2026-04-25 16:48 | 39.55468 | 2.73622 | 30 ft | 24 kts | 329° |
| 2026-04-25 16:48 | 39.55608 | 2.73511 | 30 ft | 20 kts | 329° |
| 2026-04-25 16:49 | 39.55694 | 2.73580 | 30 ft | 16 kts | 57° |
| 2026-04-25 16:49 | 39.55751 | 2.73698 | 30 ft | 15 kts | 58° |
| 2026-04-25 16:49 | 39.55799 | 2.73801 | 30 ft | 13 kts | 59° |
| 2026-04-25 16:49 | 39.55843 | 2.73894 | 30 ft | 11 kts | 56° |
| 2026-04-25 16:50 | 39.55899 | 2.73897 | 30 ft | 9 kts | 324° |
| 2026-04-25 16:50 | 39.55928 | 2.73874 | 30 ft | 0 kts | 329° |
| 2026-04-25 16:50 | 39.55932 | 2.73871 | 30 ft | 5 kts | 329° |
| 2026-04-25 16:50 | 39.56000 | 2.73793 | 30 ft | 15 kts | 272° |
| 2026-04-25 16:51 | 39.55987 | 2.73750 | 30 ft | 0 kts | 238° |
| 2026-04-25 16:52 | 39.55986 | 2.73750 | 30 ft | 1 kts | 238° |
| 2026-04-25 16:52 | 39.55954 | 2.73683 | 30 ft | 36 kts | 238° |
| 2026-04-25 16:52 | 39.55694 | 2.73133 | 30 ft | 104 kts | 238° |
| 2026-04-25 16:53 | 39.54649 | 2.70932 | 591 ft | 154 kts | 238° |
| 2026-04-25 16:53 | 39.54081 | 2.69772 | 1215 ft | 153 kts | 234° |
| 2026-04-25 16:53 | 39.53497 | 2.68613 | 1687 ft | 155 kts | 234° |
| 2026-04-25 16:54 | 39.52864 | 2.67373 | 1941 ft | 175 kts | 233° |
| 2026-04-25 16:54 | 39.52151 | 2.65975 | 2162 ft | 200 kts | 236° |
| 2026-04-25 16:54 | 39.51343 | 2.64389 | 2500 ft | 221 kts | 236° |
| 2026-04-25 16:54 | 39.50484 | 2.62698 | 3173 ft | 228 kts | 236° |
| 2026-04-25 16:55 | 39.49603 | 2.60969 | 3912 ft | 232 kts | 235° |
| 2026-04-25 16:55 | 39.48712 | 2.59225 | 4729 ft | 233 kts | 234° |
| 2026-04-25 16:55 | 39.47816 | 2.57475 | 5517 ft | 234 kts | 234° |
| 2026-04-25 16:55 | 39.46910 | 2.55708 | 6265 ft | 237 kts | 235° |
| 2026-04-25 16:56 | 39.45993 | 2.53917 | 6964 ft | 241 kts | 236° |
| 2026-04-25 16:56 | 39.45065 | 2.52096 | 7596 ft | 250 kts | 236° |
| 2026-04-25 16:56 | 39.44074 | 2.50123 | 7904 ft | 274 kts | 236° |
| 2026-04-25 16:56 | 39.43007 | 2.47986 | 8410 ft | 288 kts | 237° |
| 2026-04-25 16:57 | 39.41906 | 2.45779 | 9142 ft | 295 kts | 237° |
| 2026-04-25 16:57 | 39.41165 | 2.44297 | 9679 ft | 297 kts | 237° |
| 2026-04-25 16:57 | 39.39635 | 2.41246 | 10435 ft | 314 kts | 237° |
| 2026-04-25 16:57 | 39.38400 | 2.38789 | 10650 ft | 338 kts | 237° |
| 2026-04-25 16:58 | 39.37090 | 2.36189 | 11096 ft | 350 kts | 237° |
| 2026-04-25 16:58 | 39.35748 | 2.33528 | 11766 ft | 356 kts | 237° |
| 2026-04-25 16:58 | 39.34391 | 2.30837 | 12466 ft | 360 kts | 237° |
| 2026-04-25 16:58 | 39.33017 | 2.28107 | 13162 ft | 365 kts | 237° |
| 2026-04-25 16:59 | 39.31627 | 2.25347 | 13850 ft | 369 kts | 236° |
| 2026-04-25 16:59 | 39.30220 | 2.22557 | 14463 ft | 373 kts | 236° |
| 2026-04-25 16:59 | 39.28816 | 2.19779 | 15076 ft | 376 kts | 236° |
| 2026-04-25 16:59 | 39.27381 | 2.16942 | 15696 ft | 379 kts | 236° |
| 2026-04-25 17:00 | 39.25919 | 2.14048 | 16326 ft | 382 kts | 236° |
| 2026-04-25 17:00 | 39.24457 | 2.11165 | 16943 ft | 385 kts | 236° |
| 2026-04-25 17:00 | 39.22985 | 2.08266 | 17547 ft | 388 kts | 236° |
| 2026-04-25 17:00 | 39.21517 | 2.05380 | 18151 ft | 391 kts | 236° |
| 2026-04-25 17:01 | 39.20017 | 2.02438 | 18706 ft | 395 kts | 236° |
| 2026-04-25 17:01 | 39.18486 | 1.99426 | 19248 ft | 397 kts | 236° |
| 2026-04-25 17:01 | 39.16994 | 1.96475 | 19771 ft | 400 kts | 237° |
| 2026-04-25 17:01 | 39.15659 | 1.93321 | 20294 ft | 403 kts | 246° |
| 2026-04-25 17:02 | 39.14752 | 1.89895 | 20831 ft | 406 kts | 254° |
| 2026-04-25 17:02 | 39.14003 | 1.86370 | 21341 ft | 409 kts | 254° |
| 2026-04-25 17:02 | 39.13247 | 1.82822 | 21860 ft | 412 kts | 254° |
| 2026-04-25 17:02 | 39.12731 | 1.80413 | 22208 ft | 414 kts | 254° |
| 2026-04-25 17:03 | 39.11709 | 1.75657 | 22877 ft | 418 kts | 254° |
| 2026-04-25 17:03 | 39.10931 | 1.72043 | 23375 ft | 420 kts | 254° |
| 2026-04-25 17:03 | 39.10147 | 1.68398 | 23779 ft | 424 kts | 254° |
| 2026-04-25 17:03 | 39.09357 | 1.64722 | 24161 ft | 427 kts | 254° |
| 2026-04-25 17:04 | 39.08564 | 1.61028 | 24557 ft | 429 kts | 254° |
| 2026-04-25 17:04 | 39.07766 | 1.57319 | 24962 ft | 431 kts | 254° |
| 2026-04-25 17:04 | 39.06963 | 1.53592 | 25347 ft | 433 kts | 254° |
| 2026-04-25 17:04 | 39.06154 | 1.49849 | 25690 ft | 436 kts | 253° |
| 2026-04-25 17:05 | 39.05338 | 1.46082 | 26037 ft | 438 kts | 253° |
| 2026-04-25 17:05 | 39.03689 | 1.38494 | 26773 ft | 442 kts | 253° |
| 2026-04-25 17:05 | 39.02858 | 1.34684 | 27134 ft | 444 kts | 253° |
| 2026-04-25 17:06 | 39.02022 | 1.30853 | 27488 ft | 446 kts | 253° |
| 2026-04-25 17:06 | 39.01181 | 1.27009 | 27828 ft | 447 kts | 253° |
| 2026-04-25 17:06 | 39.00338 | 1.23157 | 28168 ft | 449 kts | 253° |
| 2026-04-25 17:06 | 38.99487 | 1.19283 | 28500 ft | 451 kts | 253° |
| 2026-04-25 17:07 | 38.98634 | 1.15401 | 28818 ft | 452 kts | 253° |
| 2026-04-25 17:07 | 38.97775 | 1.11502 | 29120 ft | 454 kts | 253° |
| 2026-04-25 17:07 | 38.96913 | 1.07590 | 29430 ft | 456 kts | 253° |
| 2026-04-25 17:07 | 38.96047 | 1.03668 | 29734 ft | 457 kts | 253° |
| 2026-04-25 17:08 | 38.95175 | 0.99732 | 30018 ft | 459 kts | 253° |
| 2026-04-25 17:08 | 38.94298 | 0.95787 | 30268 ft | 460 kts | 253° |
| 2026-04-25 17:08 | 38.93416 | 0.91830 | 30491 ft | 461 kts | 253° |
| 2026-04-25 17:08 | 38.92532 | 0.87862 | 30712 ft | 463 kts | 253° |
| 2026-04-25 17:09 | 38.91648 | 0.83886 | 30923 ft | 464 kts | 253° |
| 2026-04-25 17:09 | 38.90760 | 0.79899 | 31191 ft | 463 kts | 253° |
| 2026-04-25 17:09 | 38.89872 | 0.75930 | 31495 ft | 462 kts | 253° |
| 2026-04-25 17:09 | 38.88980 | 0.71965 | 31776 ft | 462 kts | 253° |
| 2026-04-25 17:10 | 38.88075 | 0.68003 | 32002 ft | 463 kts | 251° |
| 2026-04-25 17:10 | 38.86931 | 0.64141 | 32246 ft | 463 kts | 247° |
| 2026-04-25 17:10 | 38.85733 | 0.60310 | 32522 ft | 463 kts | 247° |
| 2026-04-25 17:10 | 38.84531 | 0.56484 | 32818 ft | 462 kts | 247° |
| 2026-04-25 17:11 | 38.83331 | 0.52664 | 33110 ft | 461 kts | 247° |
| 2026-04-25 17:11 | 38.82075 | 0.48895 | 33405 ft | 459 kts | 242° |
| 2026-04-25 17:11 | 38.80460 | 0.45380 | 33697 ft | 457 kts | 235° |
| 2026-04-25 17:11 | 38.78705 | 0.41987 | 33992 ft | 456 kts | 235° |
| 2026-04-25 17:12 | 38.76954 | 0.38600 | 34264 ft | 455 kts | 235° |
| 2026-04-25 17:12 | 38.75212 | 0.35223 | 34533 ft | 454 kts | 235° |
| 2026-04-25 17:12 | 38.73474 | 0.31854 | 34799 ft | 453 kts | 235° |
| 2026-04-25 17:12 | 38.71738 | 0.28494 | 35024 ft | 452 kts | 235° |
| 2026-04-25 17:13 | 38.69439 | 0.24064 | 35103 ft | 452 kts | 235° |
| 2026-04-25 17:13 | 38.64735 | 0.15034 | 35097 ft | 462 kts | 235° |
| 2026-04-25 17:14 | 38.61161 | 0.08183 | 35098 ft | 464 kts | 235° |
| 2026-04-25 17:14 | 38.57578 | 0.01325 | 35100 ft | 464 kts | 235° |
| 2026-04-25 17:15 | 38.53977 | -0.05558 | 35093 ft | 468 kts | 234° |
| 2026-04-25 17:15 | 38.50358 | -0.12471 | 35089 ft | 468 kts | 234° |
| 2026-04-25 17:16 | 38.46725 | -0.19381 | 35089 ft | 469 kts | 234° |
| 2026-04-25 17:16 | 38.43090 | -0.26290 | 35092 ft | 469 kts | 234° |
| 2026-04-25 17:17 | 38.39452 | -0.33192 | 35094 ft | 469 kts | 234° |
| 2026-04-25 17:17 | 38.35801 | -0.40086 | 35099 ft | 469 kts | 234° |
| 2026-04-25 17:18 | 38.32148 | -0.46975 | 35106 ft | 469 kts | 234° |
| 2026-04-25 17:18 | 38.28492 | -0.53856 | 35107 ft | 469 kts | 234° |
| 2026-04-25 17:19 | 38.25355 | -0.61137 | 35109 ft | 471 kts | 244° |
| 2026-04-25 17:19 | 38.22640 | -0.68720 | 35105 ft | 471 kts | 244° |
| 2026-04-25 17:20 | 38.19885 | -0.76276 | 35100 ft | 471 kts | 244° |
| 2026-04-25 17:20 | 38.17134 | -0.83831 | 35110 ft | 471 kts | 244° |
| 2026-04-25 17:21 | 38.14393 | -0.91393 | 35097 ft | 471 kts | 244° |
| 2026-04-25 17:21 | 38.11645 | -0.98952 | 35095 ft | 472 kts | 244° |
| 2026-04-25 17:22 | 38.09351 | -1.05233 | 35093 ft | 471 kts | 244° |
| 2026-04-25 17:22 | 38.06128 | -1.14058 | 35093 ft | 472 kts | 244° |
| 2026-04-25 17:23 | 38.03366 | -1.21607 | 35094 ft | 471 kts | 244° |
| 2026-04-25 17:23 | 38.00596 | -1.29140 | 35098 ft | 471 kts | 244° |
| 2026-04-25 17:24 | 37.97834 | -1.36617 | 35094 ft | 471 kts | 244° |
| 2026-04-25 17:24 | 37.95057 | -1.44140 | 35106 ft | 471 kts | 244° |
| 2026-04-25 17:25 | 37.92270 | -1.51662 | 35108 ft | 472 kts | 244° |
| 2026-04-25 17:25 | 37.89479 | -1.59177 | 35106 ft | 472 kts | 244° |
| 2026-04-25 17:26 | 37.86696 | -1.66691 | 35106 ft | 472 kts | 244° |
| 2026-04-25 17:26 | 37.83903 | -1.74202 | 35109 ft | 471 kts | 244° |
| 2026-04-25 17:27 | 37.81093 | -1.81698 | 35108 ft | 471 kts | 243° |
| 2026-04-25 17:27 | 37.79228 | -1.86655 | 35105 ft | 471 kts | 243° |
| 2026-04-25 17:28 | 37.75457 | -1.96665 | 35107 ft | 472 kts | 243° |
| 2026-04-25 17:28 | 37.72626 | -2.04145 | 35109 ft | 472 kts | 243° |
| 2026-04-25 17:29 | 37.69792 | -2.11625 | 35107 ft | 472 kts | 243° |
| 2026-04-25 17:29 | 37.66958 | -2.19117 | 35096 ft | 473 kts | 243° |
| 2026-04-25 17:30 | 37.64116 | -2.26613 | 35092 ft | 474 kts | 243° |
| 2026-04-25 17:30 | 37.61262 | -2.34104 | 35091 ft | 474 kts | 243° |
| 2026-04-25 17:31 | 37.58403 | -2.41604 | 35099 ft | 475 kts | 243° |
| 2026-04-25 17:31 | 37.55537 | -2.49097 | 35090 ft | 475 kts | 243° |
| 2026-04-25 17:32 | 37.52660 | -2.56590 | 35090 ft | 475 kts | 243° |
| 2026-04-25 17:32 | 37.49782 | -2.64081 | 35080 ft | 475 kts | 243° |
| 2026-04-25 17:33 | 37.46924 | -2.71517 | 35081 ft | 475 kts | 243° |
| 2026-04-25 17:33 | 37.44020 | -2.79044 | 35082 ft | 475 kts | 243° |
| 2026-04-25 17:34 | 37.41151 | -2.86476 | 35072 ft | 476 kts | 243° |
| 2026-04-25 17:34 | 37.38255 | -2.93954 | 35073 ft | 476 kts | 243° |
| 2026-04-25 17:35 | 37.35343 | -3.01431 | 35072 ft | 476 kts | 243° |
| 2026-04-25 17:35 | 37.32428 | -3.08905 | 35064 ft | 476 kts | 242° |
| 2026-04-25 17:36 | 37.29513 | -3.16384 | 35064 ft | 477 kts | 242° |
| 2026-04-25 17:36 | 37.26587 | -3.23856 | 35067 ft | 477 kts | 242° |
| 2026-04-25 17:37 | 37.23651 | -3.31322 | 35066 ft | 477 kts | 242° |
| 2026-04-25 17:37 | 37.20715 | -3.38788 | 35072 ft | 474 kts | 242° |
| 2026-04-25 17:38 | 37.18785 | -3.43689 | 35069 ft | 465 kts | 243° |
| 2026-04-25 17:38 | 37.15002 | -3.53260 | 35076 ft | 457 kts | 243° |
| 2026-04-25 17:39 | 37.12654 | -3.59191 | 35076 ft | 457 kts | 243° |
| 2026-04-25 17:39 | 37.09824 | -3.66313 | 35076 ft | 457 kts | 243° |
| 2026-04-25 17:40 | 37.06993 | -3.73432 | 35077 ft | 457 kts | 243° |
| 2026-04-25 17:40 | 37.04153 | -3.80552 | 34870 ft | 457 kts | 243° |
| 2026-04-25 17:41 | 37.02730 | -3.84108 | 34626 ft | 459 kts | 243° |
| 2026-04-25 17:41 | 37.01293 | -3.87692 | 33842 ft | 464 kts | 243° |
| 2026-04-25 17:41 | 36.99834 | -3.91330 | 32808 ft | 470 kts | 243° |
| 2026-04-25 17:41 | 36.98373 | -3.94973 | 32226 ft | 465 kts | 243° |
| 2026-04-25 17:42 | 36.96925 | -3.98576 | 31601 ft | 462 kts | 243° |
| 2026-04-25 17:42 | 36.95488 | -4.02158 | 30988 ft | 459 kts | 243° |
| 2026-04-25 17:42 | 36.94058 | -4.05718 | 30287 ft | 459 kts | 242° |
| 2026-04-25 17:42 | 36.92626 | -4.09278 | 29607 ft | 457 kts | 242° |
| 2026-04-25 17:43 | 36.91209 | -4.12797 | 29049 ft | 451 kts | 243° |
| 2026-04-25 17:43 | 36.89806 | -4.16279 | 28458 ft | 446 kts | 243° |
| 2026-04-25 17:43 | 36.88417 | -4.19712 | 27919 ft | 440 kts | 243° |
| 2026-04-25 17:43 | 36.87054 | -4.23073 | 27743 ft | 427 kts | 243° |
| 2026-04-25 17:44 | 36.85724 | -4.26344 | 27370 ft | 419 kts | 243° |
| 2026-04-25 17:44 | 36.84427 | -4.29580 | 26906 ft | 415 kts | 246° |
| 2026-04-25 17:44 | 36.83511 | -4.32962 | 26439 ft | 409 kts | 259° |
| 2026-04-25 17:44 | 36.83175 | -4.36464 | 25958 ft | 404 kts | 271° |
| 2026-04-25 17:45 | 36.83412 | -4.39930 | 25486 ft | 399 kts | 283° |
| 2026-04-25 17:45 | 36.83880 | -4.42185 | 25173 ft | 396 kts | 290° |
| 2026-04-25 17:45 | 36.85391 | -4.46275 | 24511 ft | 387 kts | 300° |
| 2026-04-25 17:45 | 36.86647 | -4.49228 | 23721 ft | 383 kts | 300° |
| 2026-04-25 17:46 | 36.87889 | -4.52153 | 23035 ft | 380 kts | 300° |
| 2026-04-25 17:46 | 36.89127 | -4.55070 | 22606 ft | 380 kts | 300° |
| 2026-04-25 17:46 | 36.90362 | -4.57985 | 22139 ft | 378 kts | 300° |
| 2026-04-25 17:46 | 36.91592 | -4.60891 | 21694 ft | 378 kts | 300° |
| 2026-04-25 17:47 | 36.92820 | -4.63795 | 21236 ft | 377 kts | 300° |
| 2026-04-25 17:47 | 36.94044 | -4.66688 | 20770 ft | 375 kts | 300° |
| 2026-04-25 17:47 | 36.95259 | -4.69560 | 20307 ft | 373 kts | 300° |
| 2026-04-25 17:47 | 36.96468 | -4.72422 | 19841 ft | 372 kts | 300° |
| 2026-04-25 17:48 | 36.98873 | -4.78128 | 18889 ft | 370 kts | 300° |
| 2026-04-25 17:48 | 37.00065 | -4.80971 | 18442 ft | 369 kts | 300° |
| 2026-04-25 17:48 | 37.01256 | -4.83809 | 17932 ft | 368 kts | 300° |
| 2026-04-25 17:49 | 37.02441 | -4.86637 | 17473 ft | 365 kts | 299° |
| 2026-04-25 17:49 | 37.03617 | -4.89444 | 17019 ft | 363 kts | 299° |
| 2026-04-25 17:49 | 37.04789 | -4.92230 | 16574 ft | 361 kts | 301° |
| 2026-04-25 17:49 | 37.06191 | -4.94802 | 16130 ft | 356 kts | 313° |
| 2026-04-25 17:50 | 37.07897 | -4.97037 | 15712 ft | 354 kts | 316° |
| 2026-04-25 17:50 | 37.09600 | -4.99225 | 15364 ft | 350 kts | 315° |
| 2026-04-25 17:50 | 37.11296 | -5.01421 | 14949 ft | 346 kts | 315° |
| 2026-04-25 17:50 | 37.12917 | -5.03533 | 14723 ft | 326 kts | 315° |
| 2026-04-25 17:51 | 37.14463 | -5.05549 | 14274 ft | 318 kts | 315° |
| 2026-04-25 17:51 | 37.15986 | -5.07532 | 13707 ft | 314 kts | 315° |
| 2026-04-25 17:51 | 37.17499 | -5.09498 | 13177 ft | 313 kts | 315° |
| 2026-04-25 17:51 | 37.18988 | -5.11434 | 12840 ft | 302 kts | 315° |
| 2026-04-25 17:52 | 37.20422 | -5.13297 | 12454 ft | 292 kts | 315° |
| 2026-04-25 17:52 | 37.21345 | -5.14498 | 12197 ft | 286 kts | 315° |
| 2026-04-25 17:52 | 37.23152 | -5.16846 | 11691 ft | 274 kts | 315° |
| 2026-04-25 17:52 | 37.24467 | -5.18556 | 11317 ft | 271 kts | 315° |
| 2026-04-25 17:53 | 37.25767 | -5.20252 | 10952 ft | 268 kts | 315° |
| 2026-04-25 17:53 | 37.27056 | -5.21935 | 10588 ft | 267 kts | 315° |
| 2026-04-25 17:53 | 37.28339 | -5.23610 | 10233 ft | 265 kts | 315° |
| 2026-04-25 17:53 | 37.29613 | -5.25271 | 9874 ft | 264 kts | 316° |
| 2026-04-25 17:54 | 37.30883 | -5.26925 | 9480 ft | 262 kts | 316° |
| 2026-04-25 17:54 | 37.32144 | -5.28570 | 9089 ft | 261 kts | 315° |
| 2026-04-25 17:54 | 37.33398 | -5.30208 | 8704 ft | 260 kts | 316° |
| 2026-04-25 17:54 | 37.34646 | -5.31839 | 8324 ft | 259 kts | 316° |
| 2026-04-25 17:55 | 37.35892 | -5.33467 | 7938 ft | 257 kts | 315° |
| 2026-04-25 17:55 | 37.37121 | -5.35073 | 7572 ft | 254 kts | 315° |
| 2026-04-25 17:55 | 37.38341 | -5.36669 | 7198 ft | 252 kts | 315° |
| 2026-04-25 17:55 | 37.39511 | -5.38304 | 6839 ft | 251 kts | 307° |
| 2026-04-25 17:56 | 37.40361 | -5.40215 | 6487 ft | 251 kts | 292° |
| 2026-04-25 17:56 | 37.40808 | -5.42327 | 6109 ft | 250 kts | 277° |
| 2026-04-25 17:56 | 37.40943 | -5.44500 | 5733 ft | 248 kts | 274° |
| 2026-04-25 17:56 | 37.41064 | -5.46629 | 5350 ft | 240 kts | 274° |
| 2026-04-25 17:57 | 37.41184 | -5.48694 | 4983 ft | 233 kts | 274° |
| 2026-04-25 17:57 | 37.41302 | -5.50701 | 4608 ft | 228 kts | 274° |
| 2026-04-25 17:57 | 37.41417 | -5.52667 | 4227 ft | 223 kts | 273° |
| 2026-04-25 17:57 | 37.41454 | -5.53295 | 4109 ft | 222 kts | 273° |
| 2026-04-25 17:58 | 37.41640 | -5.56499 | 4011 ft | 217 kts | 274° |
| 2026-04-25 17:58 | 37.41759 | -5.58328 | 4036 ft | 202 kts | 274° |
| 2026-04-25 17:58 | 37.41827 | -5.60072 | 3819 ft | 198 kts | 270° |
| 2026-04-25 17:58 | 37.41842 | -5.61783 | 3566 ft | 193 kts | 269° |
| 2026-04-25 17:59 | 37.41844 | -5.63456 | 3323 ft | 189 kts | 269° |
| 2026-04-25 17:59 | 37.41843 | -5.65097 | 3087 ft | 185 kts | 269° |
| 2026-04-25 17:59 | 37.41842 | -5.66691 | 3006 ft | 181 kts | 269° |
| 2026-04-25 17:59 | 37.41840 | -5.68262 | 2961 ft | 177 kts | 269° |
| 2026-04-25 18:00 | 37.41838 | -5.69785 | 2793 ft | 172 kts | 268° |
| 2026-04-25 18:00 | 37.41836 | -5.71260 | 2589 ft | 170 kts | 269° |
| 2026-04-25 18:00 | 37.41833 | -5.72736 | 2370 ft | 168 kts | 269° |
| 2026-04-25 18:00 | 37.41831 | -5.74199 | 2145 ft | 167 kts | 269° |
| 2026-04-25 18:01 | 37.41829 | -5.75592 | 1944 ft | 153 kts | 268° |
| 2026-04-25 18:01 | 37.41826 | -5.76893 | 1731 ft | 146 kts | 267° |
| 2026-04-25 18:01 | 37.41823 | -5.78165 | 1552 ft | 145 kts | 267° |
| 2026-04-25 18:01 | 37.41821 | -5.79422 | 1359 ft | 143 kts | 267° |
| 2026-04-25 18:02 | 37.41818 | -5.80669 | 1178 ft | 142 kts | 267° |
| 2026-04-25 18:02 | 37.41815 | -5.81904 | 1000 ft | 141 kts | 266° |
| 2026-04-25 18:02 | 37.41812 | -5.83134 | 816 ft | 140 kts | 266° |
| 2026-04-25 18:02 | 37.41809 | -5.84358 | 628 ft | 140 kts | 269° |
| 2026-04-25 18:03 | 37.41810 | -5.85575 | 430 ft | 139 kts | 267° |
| 2026-04-25 18:03 | 37.41806 | -5.86780 | 262 ft | 138 kts | 268° |
| 2026-04-25 18:03 | 37.41799 | -5.87971 | 112 ft | 129 kts | 268° |
| 2026-04-25 18:03 | 37.41793 | -5.88943 | 104 ft | 92 kts | 271° |
| 2026-04-25 18:04 | 37.41794 | -5.89508 | 99 ft | 44 kts | 270° |
| 2026-04-25 18:04 | 37.41808 | -5.89754 | 98 ft | 22 kts | 298° |
| 2026-04-25 18:04 | 37.41940 | -5.89850 | 97 ft | 24 kts | 337° |
| 2026-04-25 18:04 | 37.42079 | -5.89924 | 95 ft | 20 kts | 339° |
| 2026-04-25 18:05 | 37.42181 | -5.89863 | 94 ft | 11 kts | 43° |
| 2026-04-25 18:05 | 37.42219 | -5.89880 | 94 ft | 5 kts | 313° |
| 2026-04-25 18:05 | 37.42242 | -5.89911 | 94 ft | 3 kts | 316° |
| 2026-04-25 18:05 | 37.42245 | -5.89914 | 96 ft | 0 kts | 315° |